Chrisopigi Lady — A8EQ9 — position and weather

sailwx.info

Track history (hours):
 
Tides and Currents Weather Stations Pressure Air Temp Water Temp Dewpoint Dewpoint Depression Visibility Wind Speed Wind Dir Waves Ship Positions

Chrisopigi Lady

Last reported at 2016-Sep-02 15:29 UTC. Time now 2016-Oct-01 17:18 UTC.
Position N 01°58' E 102°15'.
Warning: this ship's position is 29 days out of date.

Length 228 m; draft 8 m.

Type: Ship (hazmat cat A). MMSI: 636012314.

Date/timePositionNaut miles runAvg speedWind from/ knotsBaromVisibWave heightAir tempDewpointWater temp
2016-Sep-02 15:29N 01°58' E 102°15'1212.5
2016-Sep-02 14:33N 01°52' E 102°25'1211.9
2016-Sep-02 13:32N 01°47' E 102°36'8412.1
2016-Sep-02 06:33N 01°13' E 103°53'2 2.3
2016-Sep-02 05:29N 01°15' E 103°55'0 0.0
2016-Sep-02 02:11N 01°15' E 103°55'0 0.0
2016-Sep-02 01:32N 01°15' E 103°55'0 0.0
2016-Sep-02 00:32N 01°15' E 103°55'0 0.0
2016-Sep-01 23:32N 01°15' E 103°55'0 0.0
2016-Sep-01 22:26N 01°15' E 103°55'0 0.0
2016-Sep-01 21:08N 01°15' E 103°55'0 0.1
2016-Sep-01 20:23N 01°15' E 103°55'0 0.1
2016-Sep-01 19:14N 01°15' E 103°55'0 0.0
2016-Sep-01 18:29N 01°15' E 103°55'0 0.0
2016-Sep-01 11:15N 01°15' E 103°55'4 5.3
2016-Sep-01 10:33N 01°12' E 103°51'9 9.4
2016-Sep-01 09:33N 01°14' E 103°42'2 0.1
2016-Aug-31 02:33N 01°15' E 103°44'1 0.1
2016-Aug-29 23:33N 01°17' E 103°44'5 4.6
2016-Aug-29 22:34N 01°14' E 103°48'1 0.0
2016-Aug-29 10:26N 01°14' E 103°47'4 4.8
2016-Aug-29 09:30N 01°14' E 103°43'  
Track history (hours):
 
Tides and Currents Weather Stations Pressure Air Temp Water Temp Dewpoint Dewpoint Depression Visibility Wind Speed Wind Dir Waves Ship Positions

Chrisopigi Lady

Last reported at 2016-Sep-02 15:29 UTC. Time now 2016-Oct-01 17:18 UTC.
Position N 01°58' E 102°15'.
Warning: this ship's position is 29 days out of date.

Length 228 m; draft 8 m.

Type: Ship (hazmat cat A). MMSI: 636012314.

Date/timePositionNaut miles runAvg speedWind from/ knotsBaromVisibWave heightAir tempDewpointWater temp
2016-Sep-02 15:29N 01°58' E 102°15'1212.5
2016-Sep-02 14:33N 01°52' E 102°25'1211.9
2016-Sep-02 13:32N 01°47' E 102°36'8412.1
2016-Sep-02 06:33N 01°13' E 103°53'2 2.3
2016-Sep-02 05:29N 01°15' E 103°55'0 0.0
2016-Sep-02 02:11N 01°15' E 103°55'0 0.0
2016-Sep-02 01:32N 01°15' E 103°55'0 0.0
2016-Sep-02 00:32N 01°15' E 103°55'0 0.0
2016-Sep-01 23:32N 01°15' E 103°55'0 0.0
2016-Sep-01 22:26N 01°15' E 103°55'0 0.0
2016-Sep-01 21:08N 01°15' E 103°55'0 0.1
2016-Sep-01 20:23N 01°15' E 103°55'0 0.1
2016-Sep-01 19:14N 01°15' E 103°55'0 0.0
2016-Sep-01 18:29N 01°15' E 103°55'0 0.0
2016-Sep-01 11:15N 01°15' E 103°55'4 5.3
2016-Sep-01 10:33N 01°12' E 103°51'9 9.4
2016-Sep-01 09:33N 01°14' E 103°42'2 0.1
2016-Aug-31 02:33N 01°15' E 103°44'1 0.1
2016-Aug-29 23:33N 01°17' E 103°44'5 4.6
2016-Aug-29 22:34N 01°14' E 103°48'1 0.0
2016-Aug-29 10:26N 01°14' E 103°47'4 4.8
2016-Aug-29 09:30N 01°14' E 103°43'  

Dump ship's entire track history